createdAt,value
2019-04-01T00:01:58.398Z,7.50
2019-04-01T00:04:28.395Z,7.40
2019-04-01T00:06:58.446Z,7.40
2019-04-01T00:09:28.378Z,7.30
2019-04-01T00:11:58.382Z,7.40
2019-04-01T00:14:28.371Z,7.40
2019-04-01T00:16:58.411Z,7.40
2019-04-01T00:19:28.318Z,7.40
2019-04-01T00:21:58.209Z,7.30
2019-04-01T00:24:29.676Z,7.30
2019-04-01T00:26:59.691Z,7.30
2019-04-01T00:29:29.405Z,7.20
2019-04-01T00:31:59.439Z,7.30
2019-04-01T00:34:29.115Z,7.30
2019-04-01T00:36:59.049Z,7.20
2019-04-01T00:39:28.970Z,7.20
2019-04-01T00:42:08.618Z,7.20
2019-04-01T00:44:40.352Z,7.20
2019-04-01T00:47:10.164Z,7.10
2019-04-01T00:49:40.195Z,7.00
2019-04-01T00:52:10.206Z,7.00
2019-04-01T00:54:40.247Z,7.00
2019-04-01T00:57:10.223Z,7.00
2019-04-01T00:59:40.186Z,6.90
2019-04-01T01:02:10.381Z,6.90
2019-04-01T01:04:40.280Z,6.90
2019-04-01T01:07:10.406Z,6.90
2019-04-01T01:09:40.401Z,6.70
2019-04-01T01:12:10.633Z,6.60
2019-04-01T01:14:40.660Z,6.60
2019-04-01T01:17:10.585Z,6.60
2019-04-01T01:19:40.491Z,6.50
2019-04-01T01:22:10.403Z,6.50
2019-04-01T01:24:40.405Z,6.50
2019-04-01T01:27:10.217Z,6.40
2019-04-01T01:29:40.375Z,6.40
2019-04-01T01:32:10.167Z,6.40
2019-04-01T01:34:40.260Z,6.30
2019-04-01T01:37:10.612Z,6.10
2019-04-01T01:39:40.706Z,6.00
2019-04-01T01:42:10.727Z,6.10
2019-04-01T01:44:40.763Z,6.10
2019-04-01T01:47:10.540Z,6.20
2019-04-01T01:49:40.450Z,6.10
2019-04-01T01:52:10.491Z,6.10
2019-04-01T01:54:40.510Z,6.10
2019-04-01T01:57:10.528Z,6.00
2019-04-01T01:59:40.431Z,6.00
2019-04-01T02:02:10.347Z,5.90
2019-04-01T02:04:40.344Z,5.90
2019-04-01T02:07:10.307Z,5.90
2019-04-01T02:09:40.263Z,5.90
2019-04-01T02:12:10.311Z,5.90
2019-04-01T02:14:40.123Z,5.80
2019-04-01T02:17:10.135Z,5.80
2019-04-01T02:19:39.990Z,5.80
2019-04-01T02:22:10.082Z,5.70
2019-04-01T02:24:39.987Z,5.80
2019-04-01T02:27:09.916Z,5.80
2019-04-01T02:29:40.041Z,5.80
2019-04-01T02:32:10.037Z,5.70
2019-04-01T02:34:40.050Z,5.70
2019-04-01T02:37:10.225Z,5.60
2019-04-01T02:39:40.176Z,5.70
2019-04-01T02:42:10.140Z,5.70
2019-04-01T02:44:43.201Z,5.60
2019-04-01T02:47:13.267Z,5.60
2019-04-01T02:49:43.215Z,5.60
2019-04-01T02:52:13.051Z,5.60
2019-04-01T02:54:43.369Z,5.60
2019-04-01T02:57:13.013Z,5.50
2019-04-01T02:59:43.100Z,5.40
2019-04-01T03:02:13.106Z,5.40
2019-04-01T03:04:43.133Z,5.40
2019-04-01T03:07:13.241Z,5.40
2019-04-01T03:09:43.148Z,5.30
2019-04-01T03:12:13.192Z,5.30
2019-04-01T03:14:43.103Z,5.30
2019-04-01T03:17:13.198Z,5.30
2019-04-01T03:19:43.303Z,5.20
2019-04-01T03:22:13.350Z,5.30
2019-04-01T03:24:43.469Z,5.20
2019-04-01T03:27:17.051Z,5.20
2019-04-01T03:29:45.260Z,5.20
2019-04-01T03:32:15.263Z,5.10
2019-04-01T03:34:45.092Z,5.20
2019-04-01T03:37:15.246Z,5.20
2019-04-01T03:39:48.229Z,5.00
2019-04-01T03:42:18.441Z,5.00
2019-04-01T03:44:49.510Z,5.00
2019-04-01T03:47:19.561Z,5.00
2019-04-01T03:49:49.574Z,5.00
2019-04-01T03:52:19.678Z,5.00
2019-04-01T03:54:49.704Z,5.10
2019-04-01T03:57:19.872Z,5.10
2019-04-01T03:59:49.875Z,5.00
2019-04-01T04:02:19.876Z,5.00
2019-04-01T04:04:50.091Z,4.90
2019-04-01T04:07:20.093Z,4.90
2019-04-01T04:09:50.404Z,4.90
2019-04-01T04:12:20.425Z,4.80
2019-04-01T04:14:51.430Z,4.80
2019-04-01T04:17:21.644Z,4.80
2019-04-01T04:19:51.808Z,4.80
2019-04-01T04:22:21.698Z,4.80
2019-04-01T04:24:51.739Z,4.70
2019-04-01T04:27:21.700Z,4.60
2019-04-01T04:29:52.062Z,4.60
2019-04-01T04:32:22.018Z,4.60
2019-04-01T04:34:52.221Z,4.60
2019-04-01T04:37:22.212Z,4.60
2019-04-01T04:39:52.153Z,4.50
2019-04-01T04:42:22.219Z,4.50
2019-04-01T04:44:52.269Z,4.50
2019-04-01T04:47:22.364Z,4.40
2019-04-01T04:49:52.646Z,4.50
2019-04-01T04:52:22.715Z,4.50
2019-04-01T04:54:52.650Z,4.50
2019-04-01T04:57:22.582Z,4.40
2019-04-01T04:59:52.888Z,4.40
2019-04-01T05:02:24.601Z,4.40
2019-04-01T05:04:54.938Z,4.40
2019-04-01T05:07:25.343Z,4.40
2019-04-01T05:09:55.348Z,4.40
2019-04-01T05:12:25.332Z,4.50
2019-04-01T05:14:55.508Z,4.50
2019-04-01T05:17:25.449Z,4.50
2019-04-01T05:19:55.791Z,4.60
2019-04-01T05:22:26.497Z,4.60
2019-04-01T05:24:57.735Z,4.50
2019-04-01T05:27:27.922Z,4.60
2019-04-01T05:29:58.585Z,4.60
2019-04-01T05:32:28.715Z,4.60
2019-04-01T05:35:01.746Z,4.60
2019-04-01T05:37:31.832Z,4.70
2019-04-01T05:40:01.880Z,4.70
2019-04-01T05:42:32.372Z,4.70
2019-04-01T05:45:03.271Z,4.70
2019-04-01T05:47:53.223Z,4.80
2019-04-01T05:50:23.376Z,4.80
2019-04-01T05:52:53.550Z,4.70
2019-04-01T05:55:23.727Z,4.70
2019-04-01T05:57:53.909Z,4.60
2019-04-01T06:00:29.632Z,4.60
2019-04-01T06:03:00.080Z,4.60
2019-04-01T06:05:30.099Z,4.60
2019-04-01T06:08:00.122Z,4.60
2019-04-01T06:10:30.106Z,4.60
2019-04-01T06:13:00.529Z,4.60
2019-04-01T06:15:30.775Z,4.60
2019-04-01T06:18:00.867Z,4.70
2019-04-01T06:20:31.339Z,4.70
2019-04-01T06:23:01.461Z,4.80
2019-04-01T06:25:32.237Z,4.80
2019-04-01T06:28:02.354Z,4.80
2019-04-01T06:30:32.614Z,4.80
2019-04-01T06:33:02.645Z,4.80
2019-04-01T06:35:32.760Z,4.90
2019-04-01T06:38:02.578Z,4.90
2019-04-01T06:40:32.749Z,5.00
2019-04-01T06:43:02.695Z,5.00
2019-04-01T06:45:33.034Z,5.00
2019-04-01T06:48:03.002Z,5.00
2019-04-01T06:50:32.921Z,5.00
2019-04-01T06:53:03.206Z,5.10
2019-04-01T06:55:32.975Z,5.20
2019-04-01T06:58:03.114Z,5.30
2019-04-01T07:00:33.355Z,5.40
2019-04-01T07:03:03.146Z,5.50
2019-04-01T07:05:33.426Z,5.60
2019-04-01T07:08:03.785Z,5.70
2019-04-01T07:10:34.141Z,5.90
2019-04-01T07:13:04.015Z,6.00
2019-04-01T07:15:33.935Z,6.10
2019-04-01T07:18:04.434Z,6.20
2019-04-01T07:20:34.525Z,6.40
2019-04-01T07:23:04.494Z,6.50
2019-04-01T07:25:34.605Z,6.60
2019-04-01T07:28:04.721Z,6.70
2019-04-01T07:30:34.787Z,6.90
2019-04-01T07:33:04.760Z,7.00
2019-04-01T07:35:34.793Z,7.10
2019-04-01T07:38:04.926Z,7.20
2019-04-01T07:40:34.917Z,7.30
2019-04-01T07:43:05.142Z,7.50
2019-04-01T07:45:35.265Z,7.70
2019-04-01T07:48:05.166Z,7.80
2019-04-01T07:50:35.366Z,7.90
2019-04-01T07:53:05.648Z,8.00
2019-04-01T07:55:35.802Z,8.10
2019-04-01T07:58:05.538Z,8.30
2019-04-01T08:00:35.648Z,8.40
2019-04-01T08:03:05.667Z,8.60
2019-04-01T08:05:36.110Z,8.70
2019-04-01T08:08:06.561Z,8.90
2019-04-01T08:10:36.653Z,9.00
2019-04-01T08:13:06.860Z,9.20
2019-04-01T08:15:37.184Z,9.30
2019-04-01T08:18:07.214Z,9.30
2019-04-01T08:20:37.220Z,9.30
2019-04-01T08:23:07.541Z,9.50
2019-04-01T08:25:37.584Z,9.50
2019-04-01T08:28:07.884Z,9.70
2019-04-01T08:30:37.936Z,9.70
2019-04-01T08:33:08.231Z,9.90
2019-04-01T08:35:38.215Z,10.00
2019-04-01T08:38:08.165Z,10.00
2019-04-01T08:40:38.081Z,10.10
2019-04-01T08:43:08.076Z,10.40
2019-04-01T08:45:38.033Z,10.50
2019-04-01T08:48:08.233Z,10.70
2019-04-01T08:50:38.628Z,10.80
2019-04-01T08:53:08.615Z,11.00
2019-04-01T08:55:39.180Z,11.10
2019-04-01T08:58:09.291Z,11.30
2019-04-01T09:00:39.493Z,11.40
2019-04-01T09:03:09.325Z,11.60
2019-04-01T09:05:39.449Z,11.60
2019-04-01T09:08:09.587Z,11.80
2019-04-01T09:10:39.685Z,12.00
2019-04-01T09:13:10.512Z,12.00
2019-04-01T09:15:42.489Z,12.10
2019-04-01T09:18:12.705Z,12.20
2019-04-01T09:20:42.833Z,12.30
2019-04-01T09:23:13.067Z,12.40
2019-04-01T09:25:42.882Z,12.60
2019-04-01T09:28:12.777Z,12.70
2019-04-01T09:30:42.920Z,12.70
2019-04-01T09:33:12.901Z,12.80
2019-04-01T09:35:43.020Z,12.90
2019-04-01T09:38:13.280Z,13.00
2019-04-01T09:40:43.177Z,13.10
2019-04-01T09:43:14.247Z,13.20
2019-04-01T09:45:44.436Z,13.30
2019-04-01T09:48:14.563Z,13.40
2019-04-01T09:50:44.351Z,13.60
2019-04-01T09:53:14.294Z,13.70
2019-04-01T09:55:44.200Z,13.80
2019-04-01T09:58:14.221Z,14.00
2019-04-01T10:00:44.234Z,14.10
2019-04-01T10:03:14.148Z,14.30
2019-04-01T10:05:43.934Z,14.40
2019-04-01T10:08:13.893Z,14.70
2019-04-01T10:10:43.965Z,14.80
2019-04-01T10:13:14.095Z,14.90
2019-04-01T10:15:44.147Z,15.10
2019-04-01T10:18:14.131Z,15.30
2019-04-01T10:20:44.437Z,15.40
2019-04-01T10:23:14.275Z,15.60
2019-04-01T10:25:44.381Z,15.80
2019-04-01T10:28:14.511Z,15.90
2019-04-01T10:30:44.645Z,16.10
2019-04-01T10:33:14.861Z,16.30
2019-04-01T10:35:44.771Z,16.50
2019-04-01T10:38:15.060Z,16.70
2019-04-01T10:40:45.013Z,16.80
2019-04-01T10:43:15.352Z,17.00
2019-04-01T10:45:45.553Z,17.10
2019-04-01T10:48:15.880Z,17.30
2019-04-01T10:50:46.052Z,17.40
2019-04-01T10:53:16.272Z,17.50
2019-04-01T10:55:46.354Z,17.70
2019-04-01T10:58:16.351Z,17.80
2019-04-01T11:00:46.448Z,18.00
2019-04-01T11:03:16.553Z,18.10
2019-04-01T11:05:46.828Z,18.20
2019-04-01T11:08:17.019Z,18.40
2019-04-01T11:10:47.205Z,18.50
2019-04-01T11:13:17.457Z,18.70
2019-04-01T11:15:48.753Z,18.70
2019-04-01T11:18:18.790Z,18.80
2019-04-01T11:20:48.762Z,19.00
2019-04-01T11:23:18.794Z,19.20
2019-04-01T11:25:48.739Z,19.20
2019-04-01T11:28:18.805Z,19.20
2019-04-01T11:30:49.055Z,19.30
2019-04-01T11:33:19.028Z,19.40
2019-04-01T11:35:48.981Z,19.50
2019-04-01T11:38:19.000Z,19.60
2019-04-01T11:40:48.875Z,19.70
2019-04-01T11:43:18.924Z,19.90
2019-04-01T11:45:49.294Z,20.00
2019-04-01T11:48:19.248Z,20.20
2019-04-01T11:50:49.451Z,20.40
2019-04-01T11:53:19.400Z,20.60
2019-04-01T11:55:49.489Z,20.70
2019-04-01T11:58:19.316Z,21.00
2019-04-01T12:00:49.351Z,21.10
2019-04-01T12:03:19.936Z,21.20
2019-04-01T12:05:50.261Z,21.20
2019-04-01T12:08:20.400Z,21.40
2019-04-01T12:10:50.495Z,21.60
2019-04-01T12:13:20.429Z,21.70
2019-04-01T12:15:50.392Z,21.80
2019-04-01T12:18:20.440Z,21.90
2019-04-01T12:20:50.613Z,22.20
2019-04-01T12:23:20.776Z,22.30
2019-04-01T12:25:50.791Z,22.60
2019-04-01T12:28:21.863Z,22.80
2019-04-01T12:30:52.183Z,22.90
2019-04-01T12:33:25.913Z,23.00
2019-04-01T12:35:54.286Z,23.00
2019-04-01T12:38:24.158Z,23.00
2019-04-01T12:40:54.380Z,23.00
2019-04-01T12:43:27.080Z,23.20
2019-04-01T12:45:57.125Z,23.30
2019-04-01T12:48:27.093Z,23.20
2019-04-01T12:50:57.136Z,23.20
2019-04-01T12:53:27.044Z,23.20
2019-04-01T12:55:57.132Z,23.20
2019-04-01T12:58:27.359Z,23.10
2019-04-01T13:01:00.770Z,23.20
2019-04-01T13:03:28.835Z,23.40
2019-04-01T13:05:59.067Z,23.60
2019-04-01T13:08:29.095Z,23.50
2019-04-01T13:10:59.205Z,23.50
2019-04-01T13:13:29.159Z,23.40
2019-04-01T13:15:59.245Z,23.10
2019-04-01T13:18:29.140Z,22.90
2019-04-01T13:20:59.177Z,22.80
2019-04-01T13:23:29.108Z,22.90
2019-04-01T13:25:59.176Z,23.30
2019-04-01T13:28:29.224Z,23.30
2019-04-01T13:30:59.221Z,23.30
2019-04-01T13:33:29.321Z,23.50
2019-04-01T13:35:59.361Z,24.30
2019-04-01T13:38:29.308Z,25.00
2019-04-01T13:40:59.514Z,25.40
2019-04-01T13:43:29.704Z,26.00
2019-04-01T13:45:59.865Z,26.10
2019-04-01T13:48:30.022Z,26.60
2019-04-01T13:51:01.192Z,27.10
2019-04-01T13:53:31.326Z,27.50
2019-04-01T13:56:01.222Z,26.70
2019-04-01T13:58:30.917Z,26.30
2019-04-01T14:01:00.977Z,26.60
2019-04-01T14:03:30.858Z,27.10
2019-04-01T14:06:03.054Z,27.50
2019-04-01T14:08:32.868Z,27.70
2019-04-01T14:11:05.795Z,27.40
2019-04-01T14:13:34.296Z,27.40
2019-04-01T14:16:04.239Z,28.10
2019-04-01T14:18:34.323Z,28.10
2019-04-01T14:21:15.218Z,27.50
2019-04-01T14:23:36.348Z,26.70
2019-04-01T14:26:06.129Z,26.30
2019-04-01T14:28:36.280Z,25.90
2019-04-01T14:31:06.369Z,25.50
2019-04-01T14:33:36.493Z,25.40
2019-04-01T14:36:06.624Z,25.60
2019-04-01T14:38:36.847Z,26.10
2019-04-01T14:41:07.119Z,26.90
2019-04-01T14:43:37.080Z,27.80
2019-04-01T14:46:07.231Z,28.50
2019-04-01T14:48:37.193Z,29.10
2019-04-01T14:51:07.315Z,29.20
2019-04-01T14:53:37.944Z,28.10
2019-04-01T14:56:08.286Z,27.40
2019-04-01T14:58:38.581Z,27.80
2019-04-01T15:01:08.536Z,28.10
2019-04-01T15:03:39.209Z,28.40
2019-04-01T15:06:09.350Z,28.80
2019-04-01T15:08:39.402Z,28.90
2019-04-01T15:11:09.504Z,29.30
2019-04-01T15:13:39.548Z,29.40
2019-04-01T15:16:09.771Z,29.60
2019-04-01T15:18:39.850Z,29.50
2019-04-01T15:21:11.854Z,29.50
2019-04-01T15:23:41.955Z,29.20
2019-04-01T15:26:12.279Z,28.90
2019-04-01T15:28:42.295Z,28.90
2019-04-01T15:31:12.327Z,28.70
2019-04-01T15:33:42.312Z,28.70
2019-04-01T15:36:12.432Z,28.70
2019-04-01T15:38:43.046Z,28.50
2019-04-01T15:41:13.085Z,28.20
2019-04-01T15:43:43.289Z,27.90
2019-04-01T15:46:13.234Z,27.60
2019-04-01T15:48:43.575Z,27.40
2019-04-01T15:51:13.329Z,27.10
2019-04-01T15:53:43.393Z,26.90
2019-04-01T15:56:13.296Z,26.70
2019-04-01T15:58:43.268Z,26.40
2019-04-01T16:01:13.276Z,25.80
2019-04-01T16:03:43.231Z,25.50
2019-04-01T16:06:13.129Z,25.20
2019-04-01T16:08:43.070Z,24.80
2019-04-01T16:11:13.181Z,24.30
2019-04-01T16:13:43.460Z,24.00
2019-04-01T16:16:14.678Z,23.90
2019-04-01T16:18:44.885Z,23.70
2019-04-01T16:21:14.555Z,23.50
2019-04-01T16:23:44.546Z,23.30
2019-04-01T16:26:14.503Z,23.00
2019-04-01T16:28:44.540Z,22.80
2019-04-01T16:31:14.795Z,22.60
2019-04-01T16:33:44.764Z,22.40
2019-04-01T16:36:15.205Z,22.20
2019-04-01T16:38:45.222Z,22.00
2019-04-01T16:41:16.513Z,21.70
2019-04-01T16:43:46.739Z,21.50
2019-04-01T16:46:16.806Z,21.30
2019-04-01T16:48:46.838Z,21.10
2019-04-01T16:51:16.715Z,21.00
2019-04-01T16:53:46.864Z,20.70
2019-04-01T16:56:16.744Z,20.40
2019-04-01T16:58:46.660Z,20.30
2019-04-01T17:01:16.514Z,20.10
2019-04-01T17:03:46.596Z,20.00
2019-04-01T17:06:16.812Z,19.80
2019-04-01T17:08:46.749Z,19.70
2019-04-01T17:11:16.944Z,19.50
2019-04-01T17:13:47.075Z,19.40
2019-04-01T17:16:17.008Z,19.30
2019-04-01T17:18:47.201Z,19.10
2019-04-01T17:21:17.216Z,18.90
2019-04-01T17:23:47.258Z,18.80
2019-04-01T17:26:17.169Z,18.60
2019-04-01T17:28:47.064Z,18.50
2019-04-01T17:31:16.935Z,18.40
2019-04-01T17:33:47.753Z,18.20
2019-04-01T17:36:17.743Z,18.10
2019-04-01T17:38:48.297Z,18.00
2019-04-01T17:41:18.354Z,17.90
2019-04-01T17:43:48.540Z,17.70
2019-04-01T17:46:18.839Z,17.60
2019-04-01T17:48:48.751Z,17.40
2019-04-01T17:51:18.674Z,17.30
2019-04-01T17:53:48.593Z,17.10
2019-04-01T17:56:18.685Z,17.00
2019-04-01T17:58:48.606Z,17.00
2019-04-01T18:01:18.406Z,16.90
2019-04-01T18:03:48.408Z,16.80
2019-04-01T18:06:18.474Z,16.70
2019-04-01T18:08:48.570Z,16.60
2019-04-01T18:11:18.371Z,16.50
2019-04-01T18:13:48.432Z,16.50
2019-04-01T18:16:18.567Z,16.40
2019-04-01T18:18:48.551Z,16.30
2019-04-01T18:21:19.067Z,16.20
2019-04-01T18:23:49.227Z,16.20
2019-04-01T18:26:19.099Z,16.10
2019-04-01T18:28:49.629Z,16.10
2019-04-01T18:31:19.518Z,16.00
2019-04-01T18:33:56.188Z,16.00
2019-04-01T18:36:21.090Z,16.00
2019-04-01T18:38:51.606Z,15.80
2019-04-01T18:41:21.515Z,15.80
2019-04-01T18:43:51.770Z,15.70
2019-04-01T18:46:23.286Z,15.60
2019-04-01T18:48:55.700Z,15.50
2019-04-01T18:51:27.430Z,15.40
2019-04-01T18:53:57.090Z,15.20
2019-04-01T18:56:26.741Z,15.10
2019-04-01T18:58:56.441Z,15.10
2019-04-01T19:01:26.121Z,15.10
2019-04-01T19:03:56.191Z,15.00
2019-04-01T19:06:26.425Z,15.00
2019-04-01T19:09:08.626Z,15.00
2019-04-01T19:11:28.108Z,15.00
2019-04-01T19:13:58.177Z,14.90
2019-04-01T19:16:28.236Z,14.90
2019-04-01T19:18:58.228Z,14.90
2019-04-01T19:21:28.202Z,14.80
2019-04-01T19:24:01.457Z,14.80
2019-04-01T19:26:31.186Z,14.70
2019-04-01T19:29:00.811Z,14.60
2019-04-01T19:31:30.466Z,14.50
2019-04-01T19:34:00.508Z,14.40
2019-04-01T19:36:30.410Z,14.30
2019-04-01T19:39:00.324Z,14.20
2019-04-01T19:41:30.491Z,14.20
2019-04-01T19:44:00.657Z,14.00
2019-04-01T19:46:30.658Z,14.00
2019-04-01T19:49:04.713Z,13.80
2019-04-01T19:51:32.226Z,13.60
2019-04-01T19:54:02.136Z,13.50
2019-04-01T19:56:32.112Z,13.40
2019-04-01T19:59:02.184Z,13.30
2019-04-01T20:01:32.416Z,13.20
2019-04-01T20:04:02.546Z,13.20
2019-04-01T20:06:32.960Z,13.10
2019-04-01T20:09:04.517Z,13.10
2019-04-01T20:11:34.755Z,13.10
2019-04-01T20:14:04.968Z,13.00
2019-04-01T20:16:34.875Z,12.80
2019-04-01T20:19:05.432Z,12.70
2019-04-01T20:21:35.908Z,12.60
2019-04-01T20:24:06.296Z,12.40
2019-04-01T20:26:36.372Z,12.30
2019-04-01T20:29:06.572Z,12.20
2019-04-01T20:31:37.211Z,12.20
2019-04-01T20:34:19.046Z,12.20
2019-04-01T20:36:39.715Z,12.20
2019-04-01T20:39:10.026Z,12.20
2019-04-01T20:41:40.167Z,12.30
2019-04-01T20:44:10.063Z,12.20
2019-04-01T20:46:40.069Z,12.10
2019-04-01T20:49:10.049Z,12.00
2019-04-01T20:51:40.103Z,12.00
2019-04-01T20:54:10.160Z,11.90
2019-04-01T20:56:40.260Z,11.80
2019-04-01T20:59:10.486Z,11.80
2019-04-01T21:01:40.662Z,11.70
2019-04-01T21:04:10.615Z,11.70
2019-04-01T21:06:40.706Z,11.70
2019-04-01T21:09:11.163Z,11.70
2019-04-01T21:11:41.281Z,11.70
2019-04-01T21:14:11.162Z,11.60
2019-04-01T21:16:41.427Z,11.50
2019-04-01T21:19:11.541Z,11.50
2019-04-01T21:21:41.435Z,11.50
2019-04-01T21:24:11.470Z,11.50
2019-04-01T21:26:41.682Z,11.40
2019-04-01T21:29:11.610Z,11.30
2019-04-01T21:31:41.575Z,11.30
2019-04-01T21:34:11.764Z,11.30
2019-04-01T21:36:41.730Z,11.20
2019-04-01T21:39:11.760Z,11.00
2019-04-01T21:41:41.692Z,11.00
2019-04-01T21:44:11.669Z,10.90
2019-04-01T21:46:42.190Z,10.80
2019-04-01T21:49:13.365Z,10.70
2019-04-01T21:51:43.274Z,10.60
2019-04-01T21:54:13.080Z,10.50
2019-04-01T21:56:43.057Z,10.40
2019-04-01T21:59:13.006Z,10.40
2019-04-01T22:01:42.893Z,10.40
2019-04-01T22:04:12.964Z,10.30
2019-04-01T22:06:42.857Z,10.30
2019-04-01T22:09:13.010Z,10.20
2019-04-01T22:11:42.991Z,10.30
2019-04-01T22:14:12.978Z,10.20
2019-04-01T22:16:43.130Z,10.10
2019-04-01T22:19:13.066Z,10.10
2019-04-01T22:21:43.155Z,10.10
2019-04-01T22:24:13.189Z,10.10
2019-04-01T22:26:43.196Z,10.00
2019-04-01T22:29:13.213Z,9.90
2019-04-01T22:31:43.263Z,9.80
2019-04-01T22:34:14.389Z,9.70
2019-04-01T22:36:44.144Z,9.60
2019-04-01T22:39:21.934Z,9.50
2019-04-01T22:41:45.665Z,9.50
2019-04-01T22:44:15.343Z,9.40
2019-04-01T22:46:46.408Z,9.30
2019-04-01T22:49:16.853Z,9.30
2019-04-01T22:51:47.020Z,9.30
2019-04-01T22:54:17.116Z,9.40
2019-04-01T22:56:47.006Z,9.30
2019-04-01T22:59:16.920Z,9.30
2019-04-01T23:01:46.801Z,9.40
2019-04-01T23:04:16.844Z,9.30
2019-04-01T23:06:46.828Z,9.40
2019-04-01T23:09:16.727Z,9.30
2019-04-01T23:11:46.777Z,9.30
2019-04-01T23:14:17.306Z,9.30
2019-04-01T23:16:48.038Z,9.20
2019-04-01T23:19:17.956Z,9.20
2019-04-01T23:21:47.934Z,9.00
2019-04-01T23:24:17.860Z,8.90
2019-04-01T23:26:47.892Z,8.80
2019-04-01T23:29:17.784Z,8.80
2019-04-01T23:31:47.960Z,8.70
2019-04-01T23:34:17.980Z,8.60
2019-04-01T23:36:48.172Z,8.50
2019-04-01T23:39:18.083Z,8.50
2019-04-01T23:41:48.148Z,8.50
2019-04-01T23:44:18.192Z,8.50
2019-04-01T23:46:48.442Z,8.50
2019-04-01T23:49:18.460Z,8.50
2019-04-01T23:51:48.575Z,8.40
2019-04-01T23:54:18.730Z,8.40
2019-04-01T23:56:48.822Z,8.40
2019-04-01T23:59:19.223Z,8.40
